createdAt,value
2023-02-08T00:00:27.668Z,1.03
2023-02-08T00:02:56.955Z,1.03
2023-02-08T00:05:25.205Z,0.91
2023-02-08T00:07:53.101Z,0.85
2023-02-08T00:10:21.240Z,0.87
2023-02-08T00:12:49.326Z,0.85
2023-02-08T00:15:17.412Z,0.87
2023-02-08T00:17:45.417Z,0.93
2023-02-08T00:20:15.442Z,0.93
2023-02-08T00:22:43.650Z,0.93
2023-02-08T00:25:11.659Z,0.92
2023-02-08T00:27:39.617Z,0.88
2023-02-08T00:30:08.630Z,0.91
2023-02-08T00:32:36.828Z,0.95
2023-02-08T00:35:04.885Z,0.84
2023-02-08T00:37:34.248Z,0.80
2023-02-08T00:40:02.751Z,0.77
2023-02-08T00:42:30.693Z,0.79
2023-02-08T00:44:58.584Z,0.79
2023-02-08T00:47:26.488Z,0.65
2023-02-08T00:49:54.693Z,0.82
2023-02-08T00:52:22.760Z,0.74
2023-02-08T00:54:52.061Z,0.74
2023-02-08T00:57:20.004Z,0.73
2023-02-08T00:59:48.035Z,0.79
2023-02-08T01:02:15.995Z,0.83
2023-02-08T01:04:44.233Z,0.88
2023-02-08T01:07:12.227Z,0.85
2023-02-08T01:09:40.415Z,0.82
2023-02-08T01:12:10.166Z,0.86
2023-02-08T01:14:38.852Z,0.74
2023-02-08T01:17:06.870Z,0.82
2023-02-08T01:19:34.884Z,0.69
2023-02-08T01:22:02.889Z,0.83
2023-02-08T01:24:31.189Z,0.79
2023-02-08T01:26:59.586Z,0.83
2023-02-08T01:29:28.954Z,0.78
2023-02-08T01:31:57.201Z,0.86
2023-02-08T01:34:25.102Z,0.82
2023-02-08T01:36:53.073Z,0.72
2023-02-08T01:39:20.974Z,0.75
2023-02-08T01:41:49.135Z,0.79
2023-02-08T01:44:54.229Z,0.86
2023-02-08T01:47:23.587Z,0.74
2023-02-08T01:49:51.532Z,0.79
2023-02-08T01:52:20.457Z,0.77
2023-02-08T01:54:50.936Z,0.77
2023-02-08T01:57:18.979Z,0.74
2023-02-08T01:59:48.148Z,0.64
2023-02-08T02:02:17.610Z,0.67
2023-02-08T02:04:47.180Z,0.68
2023-02-08T02:07:15.137Z,0.69
2023-02-08T02:09:45.264Z,0.64
2023-02-08T02:12:13.488Z,0.68
2023-02-08T02:14:41.532Z,0.67
2023-02-08T02:17:09.521Z,0.56
2023-02-08T02:19:41.806Z,0.78
2023-02-08T02:22:36.792Z,0.74
2023-02-08T02:25:14.760Z,0.71
2023-02-08T02:27:50.844Z,0.57
2023-02-08T02:30:41.555Z,0.71
2023-02-08T02:33:31.886Z,0.68
2023-02-08T02:36:01.731Z,0.62
2023-02-08T02:38:35.723Z,0.63
2023-02-08T02:41:07.453Z,0.60
2023-02-08T02:43:41.907Z,0.66
2023-02-08T02:46:22.304Z,0.69
2023-02-08T02:48:54.023Z,0.66
2023-02-08T02:51:23.576Z,0.61
2023-02-08T02:53:54.083Z,0.74
2023-02-08T02:56:23.942Z,0.64
2023-02-08T02:58:51.874Z,0.60
2023-02-08T03:01:26.033Z,0.69
2023-02-08T03:03:55.682Z,0.65
2023-02-08T03:06:29.684Z,0.65
2023-02-08T03:09:05.771Z,0.51
2023-02-08T03:11:34.613Z,0.68
2023-02-08T03:14:16.063Z,0.60
2023-02-08T03:16:59.575Z,0.62
2023-02-08T03:19:32.713Z,0.64
2023-02-08T03:22:03.157Z,0.67
2023-02-08T03:24:34.574Z,0.67
2023-02-08T03:27:04.875Z,0.67
2023-02-08T03:29:41.075Z,0.74
2023-02-08T03:32:10.579Z,0.71
2023-02-08T03:34:44.659Z,0.68
2023-02-08T03:37:14.345Z,0.69
2023-02-08T03:39:42.231Z,0.67
2023-02-08T03:42:12.817Z,0.69
2023-02-08T03:44:42.397Z,0.62
2023-02-08T03:47:18.530Z,0.71
2023-02-08T03:49:48.041Z,0.75
2023-02-08T03:52:15.993Z,0.68
2023-02-08T03:54:46.084Z,0.62
2023-02-08T03:57:14.911Z,0.63
2023-02-08T03:59:45.014Z,0.68
2023-02-08T04:02:15.070Z,0.59
2023-02-08T04:04:44.774Z,0.62
2023-02-08T04:07:14.514Z,0.60
2023-02-08T04:09:42.414Z,0.64
2023-02-08T04:12:10.528Z,0.70
2023-02-08T04:14:38.435Z,0.63
2023-02-08T04:17:06.939Z,0.57
2023-02-08T04:19:34.877Z,0.62
2023-02-08T04:22:03.172Z,0.58
2023-02-08T04:24:32.506Z,0.65
2023-02-08T04:27:00.347Z,0.60
2023-02-08T04:29:28.630Z,0.61
2023-02-08T04:31:56.547Z,0.58
2023-02-08T04:34:24.684Z,0.56
2023-02-08T04:36:52.878Z,0.55
2023-02-08T04:39:20.780Z,0.51
2023-02-08T04:41:50.132Z,0.50
2023-02-08T04:44:18.338Z,0.57
2023-02-08T04:46:46.212Z,0.49
2023-02-08T04:49:14.168Z,0.48
2023-02-08T04:51:42.375Z,0.55
2023-02-08T04:54:10.324Z,0.51
2023-02-08T04:56:38.625Z,0.56
2023-02-08T04:59:08.220Z,0.57
2023-02-08T05:01:36.170Z,0.58
2023-02-08T05:04:04.441Z,0.50
2023-02-08T05:06:32.446Z,0.46
2023-02-08T05:09:00.596Z,0.38
2023-02-08T05:11:29.018Z,0.46
2023-02-08T05:13:56.920Z,0.41
2023-02-08T05:16:26.413Z,0.53
2023-02-08T05:18:54.788Z,0.48
2023-02-08T05:21:23.872Z,0.47
2023-02-08T05:23:52.071Z,0.49
2023-02-08T05:26:19.975Z,0.49
2023-02-08T05:28:48.081Z,0.49
2023-02-08T05:31:17.256Z,0.56
2023-02-08T05:33:46.535Z,0.60
2023-02-08T05:36:14.472Z,0.56
2023-02-08T05:38:42.395Z,0.53
2023-02-08T05:41:10.523Z,0.50
2023-02-08T05:43:38.474Z,0.53
2023-02-08T05:46:06.918Z,0.53
2023-02-08T05:48:34.813Z,0.50
2023-02-08T05:51:04.286Z,0.54
2023-02-08T05:53:32.315Z,0.52
2023-02-08T05:56:00.223Z,0.55
2023-02-08T05:58:28.338Z,0.54
2023-02-08T06:00:56.580Z,0.61
2023-02-08T06:03:24.563Z,0.74
2023-02-08T06:05:52.457Z,0.59
2023-02-08T06:08:22.042Z,0.63
2023-02-08T06:10:50.109Z,0.69
2023-02-08T06:13:18.077Z,0.75
2023-02-08T06:15:47.010Z,0.58
2023-02-08T06:18:14.926Z,0.50
2023-02-08T06:20:42.996Z,0.60
2023-02-08T06:23:10.988Z,0.48
2023-02-08T06:25:40.422Z,0.41
2023-02-08T06:28:10.686Z,0.38
2023-02-08T06:30:39.552Z,0.49
2023-02-08T06:33:07.686Z,0.58
2023-02-08T06:35:35.674Z,0.34
2023-02-08T06:38:03.741Z,0.37
2023-02-08T06:40:31.718Z,0.36
2023-02-08T06:43:00.965Z,0.40
2023-02-08T06:45:28.979Z,0.44
2023-02-08T06:47:56.904Z,0.49
2023-02-08T06:50:24.789Z,0.48
2023-02-08T06:52:52.697Z,0.44
2023-02-08T06:55:20.653Z,0.40
2023-02-08T06:57:48.616Z,0.38
2023-02-08T07:00:18.223Z,0.50
2023-02-08T07:02:47.337Z,0.50
2023-02-08T07:05:15.403Z,0.51
2023-02-08T07:07:43.578Z,0.41
2023-02-08T07:10:11.429Z,0.31
2023-02-08T07:12:39.352Z,0.38
2023-02-08T07:15:07.773Z,0.51
2023-02-08T07:17:37.188Z,0.56
2023-02-08T07:20:05.313Z,0.54
2023-02-08T07:22:33.310Z,0.59
2023-02-08T07:25:01.550Z,0.64
2023-02-08T07:27:29.493Z,0.55
2023-02-08T07:29:57.420Z,0.59
2023-02-08T07:32:25.304Z,0.58
2023-02-08T07:34:55.299Z,0.46
2023-02-08T07:37:23.232Z,0.65
2023-02-08T07:39:51.178Z,0.69
2023-02-08T07:42:19.323Z,0.64
2023-02-08T07:44:47.300Z,0.69
2023-02-08T07:47:15.173Z,0.76
2023-02-08T07:49:43.359Z,0.79
2023-02-08T07:52:12.657Z,0.74
2023-02-08T07:54:40.557Z,0.79
2023-02-08T07:57:09.001Z,0.87
2023-02-08T07:59:36.887Z,0.96
2023-02-08T08:02:09.224Z,0.96
2023-02-08T08:04:42.524Z,0.99
2023-02-08T08:07:10.476Z,1.04
2023-02-08T08:09:40.021Z,1.05
2023-02-08T08:12:08.406Z,1.12
2023-02-08T08:14:36.654Z,1.21
2023-02-08T08:17:04.594Z,1.27
2023-02-08T08:19:32.672Z,1.36
2023-02-08T08:22:00.658Z,1.35
2023-02-08T08:24:30.316Z,1.51
2023-02-08T08:26:59.670Z,1.53
2023-02-08T08:29:29.432Z,1.57
2023-02-08T08:31:57.749Z,1.59
2023-02-08T08:34:29.863Z,1.60
2023-02-08T08:36:57.877Z,1.67
2023-02-08T08:39:27.395Z,1.73
2023-02-08T08:41:55.559Z,1.82
2023-02-08T08:44:25.006Z,1.81
2023-02-08T08:46:56.850Z,1.85
2023-02-08T08:49:24.801Z,1.90
2023-02-08T08:51:52.768Z,1.94
2023-02-08T08:54:21.272Z,2.00
2023-02-08T08:56:49.274Z,2.15
2023-02-08T08:59:17.180Z,2.19
2023-02-08T09:01:46.919Z,2.28
2023-02-08T09:04:20.906Z,2.28
2023-02-08T09:06:53.214Z,2.38
2023-02-08T09:09:21.874Z,2.32
2023-02-08T09:11:49.910Z,2.35
2023-02-08T09:14:18.035Z,2.48
2023-02-08T09:16:48.489Z,2.64
2023-02-08T09:19:16.848Z,2.68
2023-02-08T09:21:46.180Z,2.75
2023-02-08T09:24:14.412Z,2.88
2023-02-08T09:26:42.460Z,2.93
2023-02-08T09:29:11.167Z,3.15
2023-02-08T09:31:39.949Z,3.07
2023-02-08T09:34:12.270Z,3.06
2023-02-08T09:36:52.704Z,3.18
2023-02-08T09:39:22.639Z,3.32
2023-02-08T09:42:13.874Z,3.25
2023-02-08T09:44:46.884Z,3.36
2023-02-08T09:47:18.561Z,3.50
2023-02-08T09:49:52.855Z,3.60
2023-02-08T09:52:22.324Z,3.62
2023-02-08T09:54:51.729Z,3.81
2023-02-08T09:57:22.568Z,3.80
2023-02-08T09:59:53.862Z,3.92
2023-02-08T10:02:24.569Z,3.85
2023-02-08T10:04:59.922Z,4.12
2023-02-08T10:07:28.127Z,4.08
2023-02-08T10:09:56.400Z,4.03
2023-02-08T10:12:30.137Z,4.14
2023-02-08T10:15:03.660Z,4.16
2023-02-08T10:17:48.730Z,4.19
2023-02-08T10:20:38.814Z,4.28
2023-02-08T10:23:16.718Z,4.32
2023-02-08T10:26:07.941Z,4.58
2023-02-08T10:28:48.307Z,4.74
2023-02-08T10:31:20.287Z,4.92
2023-02-08T10:33:50.827Z,4.88
2023-02-08T10:36:21.152Z,4.83
2023-02-08T10:38:50.346Z,4.99
2023-02-08T10:41:20.854Z,4.99
2023-02-08T10:43:50.530Z,5.03
2023-02-08T10:46:23.695Z,5.22
2023-02-08T10:48:58.941Z,5.24
2023-02-08T10:51:28.377Z,5.22
2023-02-08T10:53:56.655Z,5.20
2023-02-08T10:56:41.388Z,5.46
2023-02-08T10:59:16.856Z,5.46
2023-02-08T11:01:45.150Z,5.46
2023-02-08T11:04:13.638Z,5.68
2023-02-08T11:06:43.688Z,5.75
2023-02-08T11:09:24.188Z,5.79
2023-02-08T11:11:52.846Z,5.72
2023-02-08T11:14:21.846Z,5.75
2023-02-08T11:16:53.225Z,5.91
2023-02-08T11:19:35.534Z,5.75
2023-02-08T11:22:06.338Z,6.08
2023-02-08T11:24:39.914Z,5.97
2023-02-08T11:27:17.809Z,5.98
2023-02-08T11:29:45.812Z,6.07
2023-02-08T11:32:17.142Z,6.13
2023-02-08T11:34:45.346Z,6.23
2023-02-08T11:37:20.252Z,6.36
2023-02-08T11:39:51.752Z,6.05
2023-02-08T11:42:21.773Z,6.24
2023-02-08T11:44:49.984Z,6.35
2023-02-08T11:47:21.152Z,6.18
2023-02-08T11:49:53.290Z,6.14
2023-02-08T11:52:25.387Z,6.28
2023-02-08T11:54:53.664Z,6.32
2023-02-08T11:57:22.492Z,6.34
2023-02-08T11:59:50.967Z,6.23
2023-02-08T12:02:37.209Z,6.46
2023-02-08T12:05:05.764Z,6.46
2023-02-08T12:07:43.991Z,6.34
2023-02-08T12:10:23.030Z,6.48
2023-02-08T12:13:05.105Z,6.35
2023-02-08T12:15:45.006Z,6.57
2023-02-08T12:18:29.817Z,6.60
2023-02-08T12:20:58.713Z,6.67
2023-02-08T12:23:42.388Z,6.63
2023-02-08T12:26:18.178Z,6.64
2023-02-08T12:29:10.776Z,6.66
2023-02-08T12:31:46.755Z,6.76
2023-02-08T12:34:17.891Z,6.69
2023-02-08T12:37:16.018Z,6.65
2023-02-08T12:40:05.802Z,6.81
2023-02-08T12:42:41.477Z,6.66
2023-02-08T12:45:27.123Z,6.60
2023-02-08T12:48:04.672Z,6.70
2023-02-08T12:50:35.578Z,6.75
2023-02-08T12:53:04.432Z,6.75
2023-02-08T12:55:35.764Z,6.70
2023-02-08T12:58:15.279Z,6.65
2023-02-08T13:00:45.704Z,6.79
2023-02-08T13:03:17.235Z,6.90
2023-02-08T13:06:01.569Z,6.83
2023-02-08T13:08:31.986Z,6.87
2023-02-08T13:11:17.720Z,6.96
2023-02-08T13:13:58.805Z,6.91
2023-02-08T13:16:29.452Z,6.89
2023-02-08T13:19:08.484Z,6.89
2023-02-08T13:21:38.117Z,7.09
2023-02-08T13:24:07.559Z,7.06
2023-02-08T13:26:36.871Z,7.00
2023-02-08T13:29:05.959Z,7.04
2023-02-08T13:31:36.153Z,6.94
2023-02-08T13:34:08.452Z,6.90
2023-02-08T13:36:37.462Z,7.00
2023-02-08T13:39:06.598Z,6.96
2023-02-08T13:41:36.254Z,7.01
2023-02-08T13:44:05.180Z,7.03
2023-02-08T13:46:37.442Z,7.04
2023-02-08T13:49:05.827Z,7.16
2023-02-08T13:51:52.975Z,7.39
2023-02-08T13:54:20.935Z,7.16
2023-02-08T13:56:50.935Z,7.17
2023-02-08T13:59:35.652Z,7.17
2023-02-08T14:02:30.973Z,7.01
2023-02-08T14:05:15.638Z,7.28
2023-02-08T14:07:43.982Z,7.17
2023-02-08T14:10:32.052Z,7.18
2023-02-08T14:13:02.974Z,7.18
2023-02-08T14:15:33.090Z,7.05
2023-02-08T14:18:01.346Z,7.06
2023-02-08T14:20:36.278Z,7.10
2023-02-08T14:23:05.454Z,7.19
2023-02-08T14:25:41.913Z,7.05
2023-02-08T14:28:25.342Z,7.10
2023-02-08T14:30:54.635Z,7.03
2023-02-08T14:33:24.515Z,7.08
2023-02-08T14:35:54.357Z,7.06
2023-02-08T14:39:18.899Z,6.89
2023-02-08T14:41:49.293Z,6.66
2023-02-08T14:44:55.533Z,6.85
2023-02-08T14:48:05.351Z,6.94
2023-02-08T14:50:43.489Z,6.91
2023-02-08T14:53:36.282Z,6.56
2023-02-08T14:56:07.122Z,6.59
2023-02-08T14:58:36.701Z,6.69
2023-02-08T15:01:12.535Z,6.54
2023-02-08T15:03:40.881Z,6.52
2023-02-08T15:06:49.741Z,6.59
2023-02-08T15:09:20.555Z,6.57
2023-02-08T15:11:57.531Z,6.46
2023-02-08T15:14:25.453Z,6.42
2023-02-08T15:16:56.126Z,6.39
2023-02-08T15:19:28.268Z,6.43
2023-02-08T15:21:56.295Z,6.33
2023-02-08T15:24:29.109Z,6.41
2023-02-08T15:26:57.859Z,6.33
2023-02-08T15:29:39.201Z,6.18
2023-02-08T15:32:13.729Z,6.33
2023-02-08T15:34:43.387Z,6.23
2023-02-08T15:37:15.247Z,6.17
2023-02-08T15:39:44.742Z,6.14
2023-02-08T15:42:17.344Z,6.06
2023-02-08T15:44:45.741Z,6.04
2023-02-08T15:47:16.448Z,5.96
2023-02-08T15:49:46.266Z,6.00
2023-02-08T15:52:17.005Z,6.03
2023-02-08T15:54:46.754Z,5.97
2023-02-08T15:57:22.305Z,5.85
2023-02-08T15:59:50.342Z,5.77
2023-02-08T16:02:23.770Z,5.78
2023-02-08T16:04:51.745Z,5.65
2023-02-08T16:07:26.414Z,5.54
2023-02-08T16:09:55.984Z,5.52
2023-02-08T16:12:24.749Z,5.38
2023-02-08T16:14:56.045Z,5.36
2023-02-08T16:17:34.317Z,5.34
2023-02-08T16:20:02.461Z,5.29
2023-02-08T16:22:32.051Z,5.30
2023-02-08T16:25:25.396Z,5.21
2023-02-08T16:27:53.505Z,5.16
2023-02-08T16:30:22.648Z,5.00
2023-02-08T16:32:50.870Z,4.89
2023-02-08T16:35:22.966Z,4.81
2023-02-08T16:37:55.085Z,4.70
2023-02-08T16:40:48.848Z,4.61
2023-02-08T16:43:18.324Z,4.53
2023-02-08T16:45:46.665Z,4.47
2023-02-08T16:48:34.994Z,4.51
2023-02-08T16:51:03.140Z,4.27
2023-02-08T16:53:41.311Z,4.28
2023-02-08T16:56:11.539Z,4.24
2023-02-08T16:58:39.598Z,4.28
2023-02-08T17:01:07.883Z,4.18
2023-02-08T17:03:39.149Z,4.08
2023-02-08T17:06:09.145Z,4.00
2023-02-08T17:08:37.577Z,3.84
2023-02-08T17:11:05.762Z,3.81
2023-02-08T17:13:35.131Z,3.78
2023-02-08T17:16:03.437Z,3.69
2023-02-08T17:18:33.287Z,3.57
2023-02-08T17:21:06.825Z,3.60
2023-02-08T17:23:37.959Z,3.49
2023-02-08T17:26:06.274Z,3.46
2023-02-08T17:28:38.532Z,3.37
2023-02-08T17:31:07.019Z,3.28
2023-02-08T17:33:40.767Z,3.18
2023-02-08T17:36:13.624Z,3.14
2023-02-08T17:38:42.063Z,3.12
2023-02-08T17:41:11.178Z,3.11
2023-02-08T17:43:40.817Z,3.11
2023-02-08T17:46:11.907Z,3.05
2023-02-08T17:48:39.907Z,2.97
2023-02-08T17:51:13.603Z,2.98
2023-02-08T17:53:43.823Z,2.78
2023-02-08T17:56:13.332Z,2.75
2023-02-08T17:58:51.297Z,2.64
2023-02-08T18:01:22.717Z,2.62
2023-02-08T18:03:51.220Z,2.68
2023-02-08T18:06:19.555Z,2.55
2023-02-08T18:08:47.598Z,2.53
2023-02-08T18:11:18.146Z,2.53
2023-02-08T18:13:47.997Z,2.43
2023-02-08T18:16:16.756Z,2.42
2023-02-08T18:18:45.103Z,2.31
2023-02-08T18:21:13.804Z,2.32
2023-02-08T18:23:41.877Z,2.23
2023-02-08T18:26:12.577Z,2.21
2023-02-08T18:28:40.831Z,2.19
2023-02-08T18:31:11.075Z,2.18
2023-02-08T18:33:39.135Z,2.18
2023-02-08T18:36:11.340Z,2.08
2023-02-08T18:38:39.712Z,2.06
2023-02-08T18:41:10.985Z,2.00
2023-02-08T18:43:39.241Z,1.97
2023-02-08T18:46:11.375Z,1.97
2023-02-08T18:48:40.299Z,2.00
2023-02-08T18:51:08.916Z,1.92
2023-02-08T18:53:38.137Z,1.94
2023-02-08T18:56:07.472Z,1.83
2023-02-08T18:58:35.380Z,1.88
2023-02-08T19:01:07.397Z,1.86
2023-02-08T19:03:36.822Z,1.82
2023-02-08T19:06:06.357Z,1.75
2023-02-08T19:08:36.346Z,1.76
2023-02-08T19:11:04.909Z,1.84
2023-02-08T19:13:34.406Z,1.75
2023-02-08T19:16:02.908Z,1.71
2023-02-08T19:18:30.964Z,1.68
2023-02-08T19:21:05.414Z,1.64
2023-02-08T19:23:33.433Z,1.63
2023-02-08T19:26:03.065Z,1.58
2023-02-08T19:28:33.510Z,1.68
2023-02-08T19:31:05.779Z,1.63
2023-02-08T19:33:34.260Z,1.54
2023-02-08T19:36:09.564Z,1.52
2023-02-08T19:38:37.629Z,1.55
2023-02-08T19:41:06.137Z,1.48
2023-02-08T19:43:34.359Z,1.49
2023-02-08T19:46:02.768Z,1.44
2023-02-08T19:48:30.769Z,1.37
2023-02-08T19:51:00.204Z,1.37
2023-02-08T19:53:29.917Z,1.40
2023-02-08T19:55:58.174Z,1.43
2023-02-08T19:58:26.094Z,1.37
2023-02-08T20:00:54.569Z,1.40
2023-02-08T20:03:22.773Z,1.34
2023-02-08T20:05:50.800Z,1.36
2023-02-08T20:08:18.902Z,1.30
2023-02-08T20:10:49.244Z,1.29
2023-02-08T20:13:17.256Z,1.29
2023-02-08T20:15:45.380Z,1.27
2023-02-08T20:18:14.152Z,1.27
2023-02-08T20:20:42.298Z,1.24
2023-02-08T20:23:22.060Z,1.20
2023-02-08T20:25:51.880Z,1.17
2023-02-08T20:28:19.814Z,1.20
2023-02-08T20:30:48.048Z,1.21
2023-02-08T20:33:16.002Z,1.11
2023-02-08T20:35:44.129Z,1.19
2023-02-08T20:38:12.165Z,1.13
2023-02-08T20:40:40.139Z,1.16
2023-02-08T20:43:09.436Z,1.03
2023-02-08T20:45:37.961Z,1.05
2023-02-08T20:48:06.362Z,1.05
2023-02-08T20:50:34.436Z,0.98
2023-02-08T20:53:02.447Z,1.09
2023-02-08T20:55:30.661Z,1.09
2023-02-08T20:57:58.557Z,0.99
2023-02-08T21:00:40.209Z,1.05
2023-02-08T21:03:10.112Z,0.98
2023-02-08T21:05:39.445Z,0.99
2023-02-08T21:08:07.777Z,0.90
2023-02-08T21:10:37.244Z,0.99
2023-02-08T21:13:05.147Z,0.97
2023-02-08T21:15:34.902Z,0.93
2023-02-08T21:18:03.022Z,0.87
2023-02-08T21:20:30.944Z,0.86
2023-02-08T21:22:58.930Z,0.78
2023-02-08T21:25:26.849Z,0.79
2023-02-08T21:27:58.484Z,0.85
2023-02-08T21:30:27.510Z,0.74
2023-02-08T21:32:56.853Z,0.77
2023-02-08T21:35:24.741Z,0.72
2023-02-08T21:37:52.796Z,0.81
2023-02-08T21:40:20.680Z,0.77
2023-02-08T21:42:48.851Z,0.83
2023-02-08T21:45:16.941Z,0.72
2023-02-08T21:47:45.169Z,0.72
2023-02-08T21:50:32.056Z,0.70
2023-02-08T21:53:17.599Z,0.61
2023-02-08T21:55:46.976Z,0.75
2023-02-08T21:58:15.061Z,0.70
2023-02-08T22:00:43.480Z,0.73
2023-02-08T22:03:11.678Z,0.65
2023-02-08T22:05:58.247Z,0.59
2023-02-08T22:08:26.145Z,0.66
2023-02-08T22:10:58.288Z,0.59
2023-02-08T22:13:26.445Z,0.66
2023-02-08T22:15:54.686Z,0.57
2023-02-08T22:18:22.739Z,0.57
2023-02-08T22:20:53.427Z,0.63
2023-02-08T22:23:21.435Z,0.50
2023-02-08T22:25:49.505Z,0.50
2023-02-08T22:28:17.619Z,0.58
2023-02-08T22:30:48.632Z,0.54
2023-02-08T22:33:16.859Z,0.65
2023-02-08T22:35:44.732Z,0.56
2023-02-08T22:38:14.040Z,0.62
2023-02-08T22:40:42.226Z,0.50
2023-02-08T22:43:10.362Z,0.47
2023-02-08T22:45:48.349Z,0.57
2023-02-08T22:48:16.358Z,0.58
2023-02-08T22:50:44.685Z,0.58
2023-02-08T22:53:14.172Z,0.59
2023-02-08T22:55:42.078Z,0.51
2023-02-08T22:58:10.008Z,0.35
2023-02-08T23:00:38.031Z,0.29
2023-02-08T23:03:06.043Z,0.42
2023-02-08T23:05:34.824Z,0.45
2023-02-08T23:08:02.830Z,0.45
2023-02-08T23:10:32.215Z,0.34
2023-02-08T23:13:00.688Z,0.27
2023-02-08T23:15:28.620Z,0.26
2023-02-08T23:17:58.109Z,0.28
2023-02-08T23:20:26.278Z,0.28
2023-02-08T23:22:54.324Z,0.26
2023-02-08T23:25:22.515Z,0.20
2023-02-08T23:27:51.999Z,0.12
2023-02-08T23:30:20.047Z,0.17
2023-02-08T23:32:48.151Z,0.14
2023-02-08T23:35:16.314Z,0.20
2023-02-08T23:37:44.376Z,0.21
2023-02-08T23:40:12.855Z,0.15
2023-02-08T23:42:41.138Z,0.21
2023-02-08T23:45:11.189Z,0.15
2023-02-08T23:47:39.470Z,0.10
2023-02-08T23:50:07.615Z,0.12
2023-02-08T23:52:35.909Z,0.12
2023-02-08T23:55:04.106Z,0.20
2023-02-08T23:57:33.201Z,0.16
